sensor_id;sensor_type;location;lat;lon;timestamp;pressure;altitude;pressure_sealevel;temperature;humidity
35655;BME280;21773;50.010;19.972;2022-11-15T00:03:02;99117.31;;;10.09;72.21
35655;BME280;21773;50.010;19.972;2022-11-15T00:06:24;99114.81;;;10.08;71.90
35655;BME280;21773;50.010;19.972;2022-11-15T00:09:46;99107.81;;;10.00;71.85
35655;BME280;21773;50.010;19.972;2022-11-15T00:13:11;99108.44;;;9.95;71.56
35655;BME280;21773;50.010;19.972;2022-11-15T00:16:34;99107.41;;;9.96;71.34
35655;BME280;21773;50.010;19.972;2022-11-15T00:19:56;99105.13;;;10.00;71.40
35655;BME280;21773;50.010;19.972;2022-11-15T00:23:18;99105.50;;;10.10;72.09
35655;BME280;21773;50.010;19.972;2022-11-15T00:26:40;99101.53;;;10.19;71.71
35655;BME280;21773;50.010;19.972;2022-11-15T00:30:02;99099.88;;;10.25;71.65
35655;BME280;21773;50.010;19.972;2022-11-15T00:33:25;99094.66;;;10.30;70.97
35655;BME280;21773;50.010;19.972;2022-11-15T00:36:47;99086.78;;;10.28;70.01
35655;BME280;21773;50.010;19.972;2022-11-15T00:40:10;99087.03;;;10.20;70.56
35655;BME280;21773;50.010;19.972;2022-11-15T00:43:33;99082.03;;;10.24;70.84
35655;BME280;21773;50.010;19.972;2022-11-15T00:46:54;99069.78;;;10.28;70.85
35655;BME280;21773;50.010;19.972;2022-11-15T00:50:18;99056.09;;;10.29;70.75
35655;BME280;21773;50.010;19.972;2022-11-15T00:53:40;99054.31;;;10.10;70.47
35655;BME280;21773;50.010;19.972;2022-11-15T00:57:02;99066.31;;;10.21;70.83
35655;BME280;21773;50.010;19.972;2022-11-15T01:00:24;99064.84;;;10.25;70.70
35655;BME280;21773;50.010;19.972;2022-11-15T01:03:46;99066.06;;;10.22;70.25
35655;BME280;21773;50.010;19.972;2022-11-15T01:07:10;99049.84;;;9.84;70.13
35655;BME280;21773;50.010;19.972;2022-11-15T01:10:32;99066.19;;;9.89;70.70
35655;BME280;21773;50.010;19.972;2022-11-15T01:13:54;99056.50;;;9.75;70.94
35655;BME280;21773;50.010;19.972;2022-11-15T01:17:16;99054.84;;;9.74;71.27
35655;BME280;21773;50.010;19.972;2022-11-15T01:20:40;99060.25;;;9.74;71.24
35655;BME280;21773;50.010;19.972;2022-11-15T01:24:05;99065.22;;;9.77;71.11
35655;BME280;21773;50.010;19.972;2022-11-15T01:27:27;99061.47;;;9.85;70.61
35655;BME280;21773;50.010;19.972;2022-11-15T01:30:49;99049.22;;;9.82;70.63
35655;BME280;21773;50.010;19.972;2022-11-15T01:34:11;99056.28;;;9.83;71.13
35655;BME280;21773;50.010;19.972;2022-11-15T01:37:33;99049.84;;;9.84;71.01
35655;BME280;21773;50.010;19.972;2022-11-15T01:40:56;99054.59;;;9.89;70.47
35655;BME280;21773;50.010;19.972;2022-11-15T01:44:47;99050.03;;;9.96;70.72
35655;BME280;21773;50.010;19.972;2022-11-15T01:48:10;99053.72;;;10.02;70.36
35655;BME280;21773;50.010;19.972;2022-11-15T01:51:33;99060.09;;;10.07;71.01
35655;BME280;21773;50.010;19.972;2022-11-15T01:54:59;99052.06;;;10.00;70.34
35655;BME280;21773;50.010;19.972;2022-11-15T01:58:26;99051.44;;;9.98;70.40
35655;BME280;21773;50.010;19.972;2022-11-15T02:01:48;99049.59;;;9.99;70.48
35655;BME280;21773;50.010;19.972;2022-11-15T02:05:10;99041.91;;;10.02;70.42
35655;BME280;21773;50.010;19.972;2022-11-15T02:08:33;99037.28;;;9.72;69.63
35655;BME280;21773;50.010;19.972;2022-11-15T02:11:55;99036.84;;;9.75;70.39
35655;BME280;21773;50.010;19.972;2022-11-15T02:15:19;99035.81;;;9.69;70.88
35655;BME280;21773;50.010;19.972;2022-11-15T02:18:45;99033.75;;;9.71;70.67
35655;BME280;21773;50.010;19.972;2022-11-15T02:22:17;99017.16;;;9.81;70.90
35655;BME280;21773;50.010;19.972;2022-11-15T02:25:51;99023.13;;;9.83;70.25
35655;BME280;21773;50.010;19.972;2022-11-15T02:29:28;99017.78;;;9.76;69.99
35655;BME280;21773;50.010;19.972;2022-11-15T02:33:03;99023.41;;;9.68;70.08
35655;BME280;21773;50.010;19.972;2022-11-15T02:36:36;99006.84;;;9.65;70.11
35655;BME280;21773;50.010;19.972;2022-11-15T02:40:08;99012.81;;;9.73;70.56
35655;BME280;21773;50.010;19.972;2022-11-15T02:43:37;99007.84;;;9.77;69.75
35655;BME280;21773;50.010;19.972;2022-11-15T02:47:20;99016.97;;;9.76;68.96
35655;BME280;21773;50.010;19.972;2022-11-15T02:50:45;99012.25;;;9.58;68.72
35655;BME280;21773;50.010;19.972;2022-11-15T02:54:12;99000.91;;;9.49;68.76
35655;BME280;21773;50.010;19.972;2022-11-15T02:57:39;98994.09;;;9.40;68.48
35655;BME280;21773;50.010;19.972;2022-11-15T03:01:08;98988.31;;;9.37;68.62
35655;BME280;21773;50.010;19.972;2022-11-15T03:04:38;98996.16;;;9.38;68.97
35655;BME280;21773;50.010;19.972;2022-11-15T03:08:08;98991.22;;;9.35;67.98
35655;BME280;21773;50.010;19.972;2022-11-15T03:11:35;98994.09;;;9.34;68.19
35655;BME280;21773;50.010;19.972;2022-11-15T03:15:00;98987.28;;;9.38;68.18
35655;BME280;21773;50.010;19.972;2022-11-15T03:18:30;98975.88;;;9.42;68.43
35655;BME280;21773;50.010;19.972;2022-11-15T03:21:54;98983.31;;;9.47;68.53
35655;BME280;21773;50.010;19.972;2022-11-15T03:25:21;98951.88;;;9.34;68.27
35655;BME280;21773;50.010;19.972;2022-11-15T03:28:47;98976.91;;;9.48;68.79
35655;BME280;21773;50.010;19.972;2022-11-15T03:32:16;98972.13;;;9.50;68.59
35655;BME280;21773;50.010;19.972;2022-11-15T03:35:42;98970.06;;;9.52;69.06
35655;BME280;21773;50.010;19.972;2022-11-15T03:39:07;98970.63;;;9.61;69.16
35655;BME280;21773;50.010;19.972;2022-11-15T03:42:35;98963.78;;;9.65;68.59
35655;BME280;21773;50.010;19.972;2022-11-15T03:46:02;98958.41;;;9.65;68.22
35655;BME280;21773;50.010;19.972;2022-11-15T03:49:29;98954.66;;;9.66;68.24
35655;BME280;21773;50.010;19.972;2022-11-15T03:52:54;98954.69;;;9.59;67.70
35655;BME280;21773;50.010;19.972;2022-11-15T03:56:16;98939.63;;;9.51;68.14
35655;BME280;21773;50.010;19.972;2022-11-15T03:59:39;98936.88;;;9.58;68.43
35655;BME280;21773;50.010;19.972;2022-11-15T04:03:01;98931.09;;;9.61;68.12
35655;BME280;21773;50.010;19.972;2022-11-15T04:06:23;98919.94;;;9.51;67.27
35655;BME280;21773;50.010;19.972;2022-11-15T04:09:45;98924.31;;;9.45;67.24
35655;BME280;21773;50.010;19.972;2022-11-15T04:13:25;98909.66;;;9.35;67.43
35655;BME280;21773;50.010;19.972;2022-11-15T04:16:49;98917.34;;;9.31;67.49
35655;BME280;21773;50.010;19.972;2022-11-15T04:20:13;98906.41;;;9.26;66.96
35655;BME280;21773;50.010;19.972;2022-11-15T04:23:52;98902.69;;;9.21;67.51
35655;BME280;21773;50.010;19.972;2022-11-15T04:27:37;98892.56;;;9.16;67.19
35655;BME280;21773;50.010;19.972;2022-11-15T04:30:59;98884.94;;;9.13;67.56
35655;BME280;21773;50.010;19.972;2022-11-15T04:34:23;98886.16;;;9.17;67.50
35655;BME280;21773;50.010;19.972;2022-11-15T04:37:45;98881.59;;;9.18;67.51
35655;BME280;21773;50.010;19.972;2022-11-15T04:41:09;98880.38;;;9.13;67.51
35655;BME280;21773;50.010;19.972;2022-11-15T04:44:31;98875.00;;;9.13;67.47
35655;BME280;21773;50.010;19.972;2022-11-15T04:47:52;98873.56;;;9.04;67.54
35655;BME280;21773;50.010;19.972;2022-11-15T04:51:16;98868.81;;;9.06;67.64
35655;BME280;21773;50.010;19.972;2022-11-15T04:54:37;98867.78;;;9.01;67.24
35655;BME280;21773;50.010;19.972;2022-11-15T04:57:59;98862.41;;;9.01;67.77
35655;BME280;21773;50.010;19.972;2022-11-15T05:01:21;98870.47;;;9.01;67.50
35655;BME280;21773;50.010;19.972;2022-11-15T05:04:43;98864.25;;;9.07;68.29
35655;BME280;21773;50.010;19.972;2022-11-15T05:08:07;98864.00;;;9.15;68.33
35655;BME280;21773;50.010;19.972;2022-11-15T05:11:28;98855.31;;;9.20;67.92
35655;BME280;21773;50.010;19.972;2022-11-15T05:14:50;98859.44;;;9.22;68.34
35655;BME280;21773;50.010;19.972;2022-11-15T05:18:12;98843.31;;;9.22;68.02
35655;BME280;21773;50.010;19.972;2022-11-15T05:21:40;98850.28;;;9.30;68.12
35655;BME280;21773;50.010;19.972;2022-11-15T05:25:04;98845.75;;;9.30;67.64
35655;BME280;21773;50.010;19.972;2022-11-15T05:28:26;98842.22;;;9.30;67.13
35655;BME280;21773;50.010;19.972;2022-11-15T05:31:48;98845.75;;;9.30;67.03
35655;BME280;21773;50.010;19.972;2022-11-15T05:35:13;98839.59;;;9.17;66.94
35655;BME280;21773;50.010;19.972;2022-11-15T05:38:37;98831.38;;;9.05;66.98
35655;BME280;21773;50.010;19.972;2022-11-15T05:42:04;98828.53;;;8.87;66.85
35655;BME280;21773;50.010;19.972;2022-11-15T05:45:28;98829.44;;;8.74;67.19
35655;BME280;21773;50.010;19.972;2022-11-15T05:48:51;98837.69;;;8.79;68.09
35655;BME280;21773;50.010;19.972;2022-11-15T05:52:17;98836.41;;;8.82;67.74
35655;BME280;21773;50.010;19.972;2022-11-15T05:55:40;98836.41;;;8.88;67.88
35655;BME280;21773;50.010;19.972;2022-11-15T05:59:04;98842.81;;;8.94;68.21
35655;BME280;21773;50.010;19.972;2022-11-15T06:02:26;98847.38;;;8.87;65.91
35655;BME280;21773;50.010;19.972;2022-11-15T06:05:48;98836.81;;;8.85;66.14
35655;BME280;21773;50.010;19.972;2022-11-15T06:09:11;98839.75;;;8.70;65.54
35655;BME280;21773;50.010;19.972;2022-11-15T06:12:33;98833.19;;;8.60;66.06
35655;BME280;21773;50.010;19.972;2022-11-15T06:15:56;98825.72;;;8.62;66.22
35655;BME280;21773;50.010;19.972;2022-11-15T06:19:18;98817.69;;;8.42;66.50
35655;BME280;21773;50.010;19.972;2022-11-15T06:22:40;98822.25;;;8.48;67.69
35655;BME280;21773;50.010;19.972;2022-11-15T06:26:03;98825.31;;;8.58;67.99
35655;BME280;21773;50.010;19.972;2022-11-15T06:29:24;98824.50;;;8.64;67.28
35655;BME280;21773;50.010;19.972;2022-11-15T06:32:47;98808.41;;;8.38;66.66
35655;BME280;21773;50.010;19.972;2022-11-15T06:36:11;98826.59;;;8.36;66.87
35655;BME280;21773;50.010;19.972;2022-11-15T06:39:37;98831.13;;;8.42;67.24
35655;BME280;21773;50.010;19.972;2022-11-15T06:42:59;98820.19;;;8.37;66.91
35655;BME280;21773;50.010;19.972;2022-11-15T06:46:21;98825.53;;;8.50;67.36
35655;BME280;21773;50.010;19.972;2022-11-15T06:49:44;98822.63;;;8.52;67.40
35655;BME280;21773;50.010;19.972;2022-11-15T06:53:06;98817.91;;;8.27;67.24
35655;BME280;21773;50.010;19.972;2022-11-15T06:56:28;98823.72;;;8.38;68.04
35655;BME280;21773;50.010;19.972;2022-11-15T06:59:50;98826.38;;;8.31;68.44
35655;BME280;21773;50.010;19.972;2022-11-15T07:03:12;98822.03;;;8.50;68.07
35655;BME280;21773;50.010;19.972;2022-11-15T07:06:35;98818.09;;;8.59;67.61
35655;BME280;21773;50.010;19.972;2022-11-15T07:09:57;98829.63;;;8.79;67.86
35655;BME280;21773;50.010;19.972;2022-11-15T07:13:19;98820.84;;;8.97;67.55
35655;BME280;21773;50.010;19.972;2022-11-15T07:16:41;98826.63;;;9.07;66.44
35655;BME280;21773;50.010;19.972;2022-11-15T07:20:04;98829.81;;;9.29;66.20
35655;BME280;21773;50.010;19.972;2022-11-15T07:23:27;98829.28;;;9.51;68.17
35655;BME280;21773;50.010;19.972;2022-11-15T07:26:49;98822.94;;;9.71;66.31
35655;BME280;21773;50.010;19.972;2022-11-15T07:30:12;98820.59;;;9.81;66.09
35655;BME280;21773;50.010;19.972;2022-11-15T07:33:35;98808.72;;;9.88;64.61
35655;BME280;21773;50.010;19.972;2022-11-15T07:36:58;98795.22;;;9.95;64.44
35655;BME280;21773;50.010;19.972;2022-11-15T07:40:22;98803.66;;;9.98;64.68
35655;BME280;21773;50.010;19.972;2022-11-15T07:43:43;98806.16;;;10.00;63.95
35655;BME280;21773;50.010;19.972;2022-11-15T07:47:05;98808.63;;;10.02;63.69
35655;BME280;21773;50.010;19.972;2022-11-15T07:50:27;98806.69;;;10.09;63.34
35655;BME280;21773;50.010;19.972;2022-11-15T07:53:50;98810.78;;;10.18;63.10
35655;BME280;21773;50.010;19.972;2022-11-15T07:57:13;98801.16;;;10.28;63.60
35655;BME280;21773;50.010;19.972;2022-11-15T08:00:35;98801.03;;;10.41;64.16
35655;BME280;21773;50.010;19.972;2022-11-15T08:03:57;98794.22;;;10.57;63.75
35655;BME280;21773;50.010;19.972;2022-11-15T08:07:19;98793.44;;;10.75;62.71
35655;BME280;21773;50.010;19.972;2022-11-15T08:10:40;98793.63;;;10.92;62.30
35655;BME280;21773;50.010;19.972;2022-11-15T08:14:03;98794.69;;;11.09;61.80
35655;BME280;21773;50.010;19.972;2022-11-15T08:17:25;98788.19;;;11.28;60.40
35655;BME280;21773;50.010;19.972;2022-11-15T08:20:47;98792.50;;;11.47;59.68
35655;BME280;21773;50.010;19.972;2022-11-15T08:24:10;98785.72;;;11.68;59.08
35655;BME280;21773;50.010;19.972;2022-11-15T08:27:32;98779.53;;;11.67;58.01
35655;BME280;21773;50.010;19.972;2022-11-15T08:30:55;98786.75;;;11.85;57.89
35655;BME280;21773;50.010;19.972;2022-11-15T08:34:17;98781.13;;;12.10;57.94
35655;BME280;21773;50.010;19.972;2022-11-15T08:37:39;98768.31;;;12.29;56.91
35655;BME280;21773;50.010;19.972;2022-11-15T08:41:03;98775.63;;;12.40;57.14
35655;BME280;21773;50.010;19.972;2022-11-15T08:44:26;98777.72;;;12.49;56.75
35655;BME280;21773;50.010;19.972;2022-11-15T08:47:49;98779.03;;;12.35;56.02
35655;BME280;21773;50.010;19.972;2022-11-15T08:51:14;98784.19;;;12.48;56.94
35655;BME280;21773;50.010;19.972;2022-11-15T08:54:35;98781.94;;;12.69;56.29
35655;BME280;21773;50.010;19.972;2022-11-15T08:57:57;98780.63;;;12.71;54.51
35655;BME280;21773;50.010;19.972;2022-11-15T09:01:20;98770.50;;;12.78;54.51
35655;BME280;21773;50.010;19.972;2022-11-15T09:04:44;98772.59;;;12.88;55.05
35655;BME280;21773;50.010;19.972;2022-11-15T09:08:06;98772.31;;;13.13;55.23
35655;BME280;21773;50.010;19.972;2022-11-15T09:11:48;98772.94;;;13.31;54.67
35655;BME280;21773;50.010;19.972;2022-11-15T09:15:11;98761.59;;;13.46;55.00
35655;BME280;21773;50.010;19.972;2022-11-15T09:18:33;98759.47;;;13.65;54.57
35655;BME280;21773;50.010;19.972;2022-11-15T09:21:57;98766.94;;;13.74;53.53
35655;BME280;21773;50.010;19.972;2022-11-15T09:25:18;98756.94;;;13.75;53.70
35655;BME280;21773;50.010;19.972;2022-11-15T09:28:40;98753.66;;;13.73;53.43
35655;BME280;21773;50.010;19.972;2022-11-15T09:32:03;98756.13;;;13.74;52.84
35655;BME280;21773;50.010;19.972;2022-11-15T09:35:25;98750.59;;;13.69;52.92
35655;BME280;21773;50.010;19.972;2022-11-15T09:38:48;98743.47;;;13.80;53.69
35655;BME280;21773;50.010;19.972;2022-11-15T09:42:28;98748.22;;;14.23;53.33
35655;BME280;21773;50.010;19.972;2022-11-15T09:45:58;98748.69;;;14.53;51.77
35655;BME280;21773;50.010;19.972;2022-11-15T09:49:40;98754.31;;;14.68;51.39
35655;BME280;21773;50.010;19.972;2022-11-15T09:52:55;98756.38;;;14.61;51.16
35655;BME280;21773;50.010;19.972;2022-11-15T09:56:02;98746.50;;;14.50;51.85
35655;BME280;21773;50.010;19.972;2022-11-15T09:59:17;98748.72;;;14.20;51.79
35655;BME280;21773;50.010;19.972;2022-11-15T10:02:37;98745.53;;;13.89;52.56
35655;BME280;21773;50.010;19.972;2022-11-15T10:05:45;98737.00;;;13.81;52.75
35655;BME280;21773;50.010;19.972;2022-11-15T10:08:55;98739.44;;;13.66;53.61
35655;BME280;21773;50.010;19.972;2022-11-15T10:12:02;98723.63;;;13.58;53.49
35655;BME280;21773;50.010;19.972;2022-11-15T10:15:13;98721.53;;;13.65;53.47
35655;BME280;21773;50.010;19.972;2022-11-15T10:18:19;98718.78;;;13.76;53.77
35655;BME280;21773;50.010;19.972;2022-11-15T10:21:39;98719.66;;;13.99;53.13
35655;BME280;21773;50.010;19.972;2022-11-15T10:24:46;98715.69;;;14.40;52.54
35655;BME280;21773;50.010;19.972;2022-11-15T10:27:57;98698.56;;;15.53;50.76
35655;BME280;21773;50.010;19.972;2022-11-15T10:31:01;98691.91;;;16.55;47.87
35655;BME280;21773;50.010;19.972;2022-11-15T10:34:12;98687.78;;;18.46;44.31
35655;BME280;21773;50.010;19.972;2022-11-15T10:37:27;98686.00;;;19.39;40.83
35655;BME280;21773;50.010;19.972;2022-11-15T10:40:31;98673.94;;;20.13;39.81
35655;BME280;21773;50.010;19.972;2022-11-15T10:43:35;98669.66;;;20.79;37.82
35655;BME280;21773;50.010;19.972;2022-11-15T10:46:40;98663.13;;;21.87;35.26
35655;BME280;21773;50.010;19.972;2022-11-15T10:50:00;98658.34;;;23.20;33.58
35655;BME280;21773;50.010;19.972;2022-11-15T10:53:12;98654.06;;;24.48;30.62
35655;BME280;21773;50.010;19.972;2022-11-15T10:56:21;98654.28;;;25.51;29.16
35655;BME280;21773;50.010;19.972;2022-11-15T10:59:30;98644.94;;;26.16;28.69
35655;BME280;21773;50.010;19.972;2022-11-15T11:02:47;98645.28;;;26.99;27.71
35655;BME280;21773;50.010;19.972;2022-11-15T11:06:09;98630.81;;;27.64;26.05
35655;BME280;21773;50.010;19.972;2022-11-15T11:09:22;98620.28;;;28.48;25.71
35655;BME280;21773;50.010;19.972;2022-11-15T11:12:28;98616.72;;;28.96;25.28
35655;BME280;21773;50.010;19.972;2022-11-15T11:15:34;98606.72;;;29.59;24.30
35655;BME280;21773;50.010;19.972;2022-11-15T11:18:42;98615.69;;;30.24;23.36
35655;BME280;21773;50.010;19.972;2022-11-15T11:21:57;98597.91;;;30.60;22.20
35655;BME280;21773;50.010;19.972;2022-11-15T11:25:13;98604.16;;;31.04;22.25
35655;BME280;21773;50.010;19.972;2022-11-15T11:28:37;98599.06;;;31.44;21.92
35655;BME280;21773;50.010;19.972;2022-11-15T11:31:52;98598.38;;;31.66;21.13
35655;BME280;21773;50.010;19.972;2022-11-15T11:35:05;98598.38;;;31.66;20.93
35655;BME280;21773;50.010;19.972;2022-11-15T11:38:22;98597.03;;;31.79;21.27
35655;BME280;21773;50.010;19.972;2022-11-15T11:41:42;98595.66;;;31.70;21.43
35655;BME280;21773;50.010;19.972;2022-11-15T11:44:54;98591.75;;;31.74;20.95
35655;BME280;21773;50.010;19.972;2022-11-15T11:48:10;98579.69;;;30.78;20.97
35655;BME280;21773;50.010;19.972;2022-11-15T11:51:19;98567.78;;;29.43;23.05
35655;BME280;21773;50.010;19.972;2022-11-15T11:54:30;98563.78;;;27.71;25.09
35655;BME280;21773;50.010;19.972;2022-11-15T11:57:43;98563.88;;;26.12;26.87
35655;BME280;21773;50.010;19.972;2022-11-15T12:00:52;98550.53;;;24.73;29.02
35655;BME280;21773;50.010;19.972;2022-11-15T12:04:03;98544.19;;;23.45;30.58
35655;BME280;21773;50.010;19.972;2022-11-15T12:07:15;98548.09;;;22.45;32.40
35655;BME280;21773;50.010;19.972;2022-11-15T12:10:24;98539.16;;;21.52;34.09
35655;BME280;21773;50.010;19.972;2022-11-15T12:13:30;98531.25;;;20.62;35.70
35655;BME280;21773;50.010;19.972;2022-11-15T12:16:41;98536.25;;;19.89;36.78
35655;BME280;21773;50.010;19.972;2022-11-15T12:19:46;98535.97;;;19.33;37.45
35655;BME280;21773;50.010;19.972;2022-11-15T12:22:54;98530.59;;;18.89;38.62
35655;BME280;21773;50.010;19.972;2022-11-15T12:26:03;98526.72;;;18.51;39.13
35655;BME280;21773;50.010;19.972;2022-11-15T12:29:14;98529.88;;;18.19;40.22
35655;BME280;21773;50.010;19.972;2022-11-15T12:32:25;98521.25;;;17.92;41.02
35655;BME280;21773;50.010;19.972;2022-11-15T12:35:35;98516.69;;;17.67;41.88
35655;BME280;21773;50.010;19.972;2022-11-15T12:38:52;98523.22;;;17.51;42.31
35655;BME280;21773;50.010;19.972;2022-11-15T12:45:35;98501.19;;;17.27;43.52
35655;BME280;21773;50.010;19.972;2022-11-15T12:48:48;98504.47;;;17.19;43.74
35655;BME280;21773;50.010;19.972;2022-11-15T12:52:09;98488.13;;;16.94;43.68
35655;BME280;21773;50.010;19.972;2022-11-15T12:55:32;98501.50;;;16.85;44.57
35655;BME280;21773;50.010;19.972;2022-11-15T12:58:43;98501.19;;;16.71;44.93
35655;BME280;21773;50.010;19.972;2022-11-15T13:02:17;98494.09;;;16.60;45.50
35655;BME280;21773;50.010;19.972;2022-11-15T13:05:51;98483.97;;;16.40;46.59
35655;BME280;21773;50.010;19.972;2022-11-15T13:08:56;98485.84;;;16.30;46.92
35655;BME280;21773;50.010;19.972;2022-11-15T13:12:00;98477.91;;;16.18;47.52
35655;BME280;21773;50.010;19.972;2022-11-15T13:15:31;98481.72;;;16.12;47.59
35655;BME280;21773;50.010;19.972;2022-11-15T13:18:43;98483.31;;;16.03;47.99
35655;BME280;21773;50.010;19.972;2022-11-15T13:21:56;98483.56;;;15.91;48.66
35655;BME280;21773;50.010;19.972;2022-11-15T13:25:31;98471.28;;;15.89;48.71
35655;BME280;21773;50.010;19.972;2022-11-15T13:28:43;98467.47;;;15.85;48.93
35655;BME280;21773;50.010;19.972;2022-11-15T13:31:48;98471.28;;;15.84;49.15
35655;BME280;21773;50.010;19.972;2022-11-15T13:34:51;98465.03;;;15.78;49.19
35655;BME280;21773;50.010;19.972;2022-11-15T13:37:56;98453.00;;;15.69;49.22
35655;BME280;21773;50.010;19.972;2022-11-15T13:41:14;98451.13;;;15.75;49.42
35655;BME280;21773;50.010;19.972;2022-11-15T13:44:24;98452.78;;;15.76;49.61
35655;BME280;21773;50.010;19.972;2022-11-15T13:47:29;98440.56;;;15.78;49.49
35655;BME280;21773;50.010;19.972;2022-11-15T13:50:36;98434.59;;;15.81;49.39
35655;BME280;21773;50.010;19.972;2022-11-15T13:53:43;98437.03;;;15.83;49.51
35655;BME280;21773;50.010;19.972;2022-11-15T13:56:58;98431.88;;;15.81;49.62
35655;BME280;21773;50.010;19.972;2022-11-15T14:00:05;98437.31;;;15.81;49.67
35655;BME280;21773;50.010;19.972;2022-11-15T14:03:18;98441.91;;;15.81;49.70
35655;BME280;21773;50.010;19.972;2022-11-15T14:06:23;98432.41;;;15.78;49.72
35655;BME280;21773;50.010;19.972;2022-11-15T14:09:38;98439.16;;;15.71;50.08
35655;BME280;21773;50.010;19.972;2022-11-15T14:12:50;98431.81;;;15.66;50.26
35655;BME280;21773;50.010;19.972;2022-11-15T14:15:54;98434.78;;;15.65;50.43
35655;BME280;21773;50.010;19.972;2022-11-15T14:18:58;98434.25;;;15.63;50.59
35655;BME280;21773;50.010;19.972;2022-11-15T14:22:12;98433.16;;;15.64;50.67
35655;BME280;21773;50.010;19.972;2022-11-15T14:25:18;98426.91;;;15.63;50.79
35655;BME280;21773;50.010;19.972;2022-11-15T14:28:41;98416.03;;;15.63;51.01
35655;BME280;21773;50.010;19.972;2022-11-15T14:31:44;98404.06;;;15.64;50.86
35655;BME280;21773;50.010;19.972;2022-11-15T14:34:49;98410.03;;;15.61;51.02
35655;BME280;21773;50.010;19.972;2022-11-15T14:37:53;98400.81;;;15.62;50.92
35655;BME280;21773;50.010;19.972;2022-11-15T14:40:56;98415.72;;;15.59;51.25
35655;BME280;21773;50.010;19.972;2022-11-15T14:44:01;98414.66;;;15.60;51.41
35655;BME280;21773;50.010;19.972;2022-11-15T14:47:05;98416.56;;;15.60;51.71
35655;BME280;21773;50.010;19.972;2022-11-15T14:50:11;98408.13;;;15.56;51.71
35655;BME280;21773;50.010;19.972;2022-11-15T14:53:16;98408.09;;;15.51;52.06
35655;BME280;21773;50.010;19.972;2022-11-15T14:56:19;98400.97;;;15.45;52.30
35655;BME280;21773;50.010;19.972;2022-11-15T14:59:24;98398.22;;;15.40;52.45
35655;BME280;21773;50.010;19.972;2022-11-15T15:02:27;98389.53;;;15.38;52.58
35655;BME280;21773;50.010;19.972;2022-11-15T15:05:32;98389.53;;;15.38;52.32
35655;BME280;21773;50.010;19.972;2022-11-15T15:08:36;98387.91;;;15.37;52.55
35655;BME280;21773;50.010;19.972;2022-11-15T15:11:39;98385.16;;;15.32;52.70
35655;BME280;21773;50.010;19.972;2022-11-15T15:14:45;98384.34;;;15.32;52.71
35655;BME280;21773;50.010;19.972;2022-11-15T15:17:49;98371.84;;;15.31;52.68
35655;BME280;21773;50.010;19.972;2022-11-15T15:20:55;98376.75;;;15.29;53.34
35655;BME280;21773;50.010;19.972;2022-11-15T15:24:01;98367.47;;;15.30;52.92
35655;BME280;21773;50.010;19.972;2022-11-15T15:27:05;98371.84;;;15.31;52.82
35655;BME280;21773;50.010;19.972;2022-11-15T15:30:11;98383.00;;;15.29;53.04
35655;BME280;21773;50.010;19.972;2022-11-15T15:33:14;98368.06;;;15.32;53.18
35655;BME280;21773;50.010;19.972;2022-11-15T15:36:18;98370.22;;;15.25;53.39
35655;BME280;21773;50.010;19.972;2022-11-15T15:39:22;98359.03;;;15.21;53.61
35655;BME280;21773;50.010;19.972;2022-11-15T15:42:25;98352.50;;;15.17;53.84
35655;BME280;21773;50.010;19.972;2022-11-15T15:45:30;98356.03;;;15.17;53.97
35655;BME280;21773;50.010;19.972;2022-11-15T15:48:35;98354.97;;;15.18;54.18
35655;BME280;21773;50.010;19.972;2022-11-15T15:51:39;98354.97;;;15.18;54.37
35655;BME280;21773;50.010;19.972;2022-11-15T15:54:42;98354.13;;;15.18;54.65
35655;BME280;21773;50.010;19.972;2022-11-15T15:57:46;98355.78;;;15.19;54.67
35655;BME280;21773;50.010;19.972;2022-11-15T16:00:51;98357.38;;;15.20;54.81
35655;BME280;21773;50.010;19.972;2022-11-15T16:03:54;98346.81;;;15.18;55.12
35655;BME280;21773;50.010;19.972;2022-11-15T16:06:58;98347.88;;;15.17;55.01
35655;BME280;21773;50.010;19.972;2022-11-15T16:10:04;98351.44;;;15.18;55.08
35655;BME280;21773;50.010;19.972;2022-11-15T16:13:17;98346.25;;;15.16;55.17
35655;BME280;21773;50.010;19.972;2022-11-15T16:16:22;98348.97;;;15.16;55.27
35655;BME280;21773;50.010;19.972;2022-11-15T16:19:25;98350.88;;;15.21;55.21
35655;BME280;21773;50.010;19.972;2022-11-15T16:22:28;98350.88;;;15.21;55.43
35655;BME280;21773;50.010;19.972;2022-11-15T16:25:35;98355.25;;;15.22;55.53
35655;BME280;21773;50.010;19.972;2022-11-15T16:28:40;98354.16;;;15.23;55.00
35655;BME280;21773;50.010;19.972;2022-11-15T16:31:45;98348.72;;;15.23;55.02
35655;BME280;21773;50.010;19.972;2022-11-15T16:34:48;98353.34;;;15.23;54.99
35655;BME280;21773;50.010;19.972;2022-11-15T16:37:51;98348.72;;;15.23;55.23
35655;BME280;21773;50.010;19.972;2022-11-15T16:40:54;98344.38;;;15.22;55.23
35655;BME280;21773;50.010;19.972;2022-11-15T16:43:58;98343.56;;;15.22;55.30
35655;BME280;21773;50.010;19.972;2022-11-15T16:47:02;98338.09;;;15.16;55.56
35655;BME280;21773;50.010;19.972;2022-11-15T16:50:07;98332.13;;;15.14;55.82
35655;BME280;21773;50.010;19.972;2022-11-15T16:53:16;98320.66;;;15.02;55.99
35655;BME280;21773;50.010;19.972;2022-11-15T16:56:25;98322.56;;;15.02;56.01
35655;BME280;21773;50.010;19.972;2022-11-15T16:59:29;98336.16;;;15.07;56.33
35655;BME280;21773;50.010;19.972;2022-11-15T17:02:41;98332.91;;;15.05;56.51
35655;BME280;21773;50.010;19.972;2022-11-15T17:05:44;98331.78;;;15.01;56.40
35655;BME280;21773;50.010;19.972;2022-11-15T17:08:48;98327.16;;;15.01;56.67
35655;BME280;21773;50.010;19.972;2022-11-15T17:11:51;98323.59;;;14.96;57.22
35655;BME280;21773;50.010;19.972;2022-11-15T17:14:55;98322.81;;;14.95;57.16
35655;BME280;21773;50.010;19.972;2022-11-15T17:18:00;98313.84;;;14.95;57.21
35655;BME280;21773;50.010;19.972;2022-11-15T17:21:04;98310.31;;;14.94;57.31